sensor_id;sensor_type;location;lat;lon;timestamp;P1;durP1;ratioP1;P2;durP2;ratioP2
10963;SDS011;5534;48.784;9.190;2024-03-06T00:01:35;0.80;;;0.73;;
10963;SDS011;5534;48.784;9.190;2024-03-06T00:04:02;1.23;;;0.90;;
10963;SDS011;5534;48.784;9.190;2024-03-06T00:06:29;1.03;;;0.80;;
10963;SDS011;5534;48.784;9.190;2024-03-06T00:08:55;1.87;;;1.07;;
10963;SDS011;5534;48.784;9.190;2024-03-06T00:11:21;1.03;;;0.90;;
10963;SDS011;5534;48.784;9.190;2024-03-06T00:13:47;1.03;;;0.80;;
10963;SDS011;5534;48.784;9.190;2024-03-06T00:16:13;0.83;;;0.80;;
10963;SDS011;5534;48.784;9.190;2024-03-06T00:18:38;1.17;;;0.73;;
10963;SDS011;5534;48.784;9.190;2024-03-06T00:21:05;1.40;;;0.80;;
10963;SDS011;5534;48.784;9.190;2024-03-06T00:23:31;0.63;;;0.60;;
10963;SDS011;5534;48.784;9.190;2024-03-06T00:25:57;0.57;;;0.57;;
10963;SDS011;5534;48.784;9.190;2024-03-06T00:28:23;0.50;;;0.50;;
10963;SDS011;5534;48.784;9.190;2024-03-06T00:30:49;1.07;;;0.83;;
10963;SDS011;5534;48.784;9.190;2024-03-06T00:33:14;0.57;;;0.57;;
10963;SDS011;5534;48.784;9.190;2024-03-06T00:35:40;1.23;;;1.03;;
10963;SDS011;5534;48.784;9.190;2024-03-06T00:38:06;0.50;;;0.50;;
10963;SDS011;5534;48.784;9.190;2024-03-06T00:40:32;0.90;;;0.90;;
10963;SDS011;5534;48.784;9.190;2024-03-06T00:42:58;0.70;;;0.60;;
10963;SDS011;5534;48.784;9.190;2024-03-06T00:45:24;0.60;;;0.60;;
10963;SDS011;5534;48.784;9.190;2024-03-06T00:47:49;0.80;;;0.80;;
10963;SDS011;5534;48.784;9.190;2024-03-06T00:50:15;1.63;;;0.77;;
10963;SDS011;5534;48.784;9.190;2024-03-06T00:52:44;2.13;;;0.93;;
10963;SDS011;5534;48.784;9.190;2024-03-06T00:55:11;0.50;;;0.50;;
10963;SDS011;5534;48.784;9.190;2024-03-06T00:57:36;1.30;;;0.73;;
10963;SDS011;5534;48.784;9.190;2024-03-06T01:00:02;0.43;;;0.40;;
10963;SDS011;5534;48.784;9.190;2024-03-06T01:02:35;1.07;;;0.73;;
10963;SDS011;5534;48.784;9.190;2024-03-06T01:05:02;0.50;;;0.50;;
10963;SDS011;5534;48.784;9.190;2024-03-06T01:07:29;1.10;;;1.00;;
10963;SDS011;5534;48.784;9.190;2024-03-06T01:09:55;0.50;;;0.50;;
10963;SDS011;5534;48.784;9.190;2024-03-06T01:12:24;0.60;;;0.60;;
10963;SDS011;5534;48.784;9.190;2024-03-06T01:14:50;0.87;;;0.87;;
10963;SDS011;5534;48.784;9.190;2024-03-06T01:17:16;0.60;;;0.50;;
10963;SDS011;5534;48.784;9.190;2024-03-06T01:19:42;0.90;;;0.50;;
10963;SDS011;5534;48.784;9.190;2024-03-06T01:22:11;0.43;;;0.40;;
10963;SDS011;5534;48.784;9.190;2024-03-06T01:24:38;0.80;;;0.43;;
10963;SDS011;5534;48.784;9.190;2024-03-06T01:27:04;0.60;;;0.60;;
10963;SDS011;5534;48.784;9.190;2024-03-06T01:29:29;0.77;;;0.77;;
10963;SDS011;5534;48.784;9.190;2024-03-06T01:31:55;1.60;;;0.90;;
10963;SDS011;5534;48.784;9.190;2024-03-06T01:34:21;0.57;;;0.57;;
10963;SDS011;5534;48.784;9.190;2024-03-06T01:36:47;1.17;;;0.80;;
10963;SDS011;5534;48.784;9.190;2024-03-06T01:39:13;1.53;;;0.80;;
10963;SDS011;5534;48.784;9.190;2024-03-06T01:41:44;1.00;;;0.90;;
10963;SDS011;5534;48.784;9.190;2024-03-06T01:44:13;1.90;;;0.90;;
10963;SDS011;5534;48.784;9.190;2024-03-06T01:46:40;0.70;;;0.70;;
10963;SDS011;5534;48.784;9.190;2024-03-06T01:49:05;1.30;;;0.97;;
10963;SDS011;5534;48.784;9.190;2024-03-06T01:51:32;1.70;;;1.20;;
10963;SDS011;5534;48.784;9.190;2024-03-06T01:53:58;0.90;;;0.80;;
10963;SDS011;5534;48.784;9.190;2024-03-06T01:56:28;1.37;;;1.17;;
10963;SDS011;5534;48.784;9.190;2024-03-06T01:58:54;1.10;;;1.00;;
10963;SDS011;5534;48.784;9.190;2024-03-06T02:01:20;1.17;;;1.07;;
10963;SDS011;5534;48.784;9.190;2024-03-06T02:03:47;1.30;;;0.93;;
10963;SDS011;5534;48.784;9.190;2024-03-06T02:06:13;0.63;;;0.63;;
10963;SDS011;5534;48.784;9.190;2024-03-06T02:08:40;1.20;;;1.10;;
10963;SDS011;5534;48.784;9.190;2024-03-06T02:11:06;0.60;;;0.53;;
10963;SDS011;5534;48.784;9.190;2024-03-06T02:13:32;0.90;;;0.73;;
10963;SDS011;5534;48.784;9.190;2024-03-06T02:15:58;1.30;;;1.20;;
10963;SDS011;5534;48.784;9.190;2024-03-06T02:18:24;1.13;;;0.90;;
10963;SDS011;5534;48.784;9.190;2024-03-06T02:20:50;2.07;;;1.20;;
10963;SDS011;5534;48.784;9.190;2024-03-06T02:23:16;1.30;;;1.00;;
10963;SDS011;5534;48.784;9.190;2024-03-06T02:25:44;1.17;;;0.83;;
10963;SDS011;5534;48.784;9.190;2024-03-06T02:28:12;1.60;;;1.50;;
10963;SDS011;5534;48.784;9.190;2024-03-06T02:30:37;1.10;;;0.90;;
10963;SDS011;5534;48.784;9.190;2024-03-06T02:33:03;1.53;;;1.27;;
10963;SDS011;5534;48.784;9.190;2024-03-06T02:35:29;2.53;;;1.50;;
10963;SDS011;5534;48.784;9.190;2024-03-06T02:37:55;2.47;;;2.00;;
10963;SDS011;5534;48.784;9.190;2024-03-06T02:40:23;2.07;;;1.47;;
10963;SDS011;5534;48.784;9.190;2024-03-06T02:42:49;1.90;;;1.70;;
10963;SDS011;5534;48.784;9.190;2024-03-06T02:45:15;1.80;;;1.27;;
10963;SDS011;5534;48.784;9.190;2024-03-06T02:47:40;2.80;;;1.60;;
10963;SDS011;5534;48.784;9.190;2024-03-06T02:50:06;3.00;;;1.57;;
10963;SDS011;5534;48.784;9.190;2024-03-06T02:52:32;1.77;;;1.43;;
10963;SDS011;5534;48.784;9.190;2024-03-06T02:54:58;1.65;;;1.27;;
10963;SDS011;5534;48.784;9.190;2024-03-06T02:57:27;1.17;;;1.07;;
10963;SDS011;5534;48.784;9.190;2024-03-06T02:59:54;1.70;;;1.50;;
10963;SDS011;5534;48.784;9.190;2024-03-06T03:02:21;3.83;;;1.80;;
10963;SDS011;5534;48.784;9.190;2024-03-06T03:04:47;1.47;;;1.10;;
10963;SDS011;5534;48.784;9.190;2024-03-06T03:07:15;1.43;;;1.33;;
10963;SDS011;5534;48.784;9.190;2024-03-06T03:09:40;1.57;;;1.20;;
10963;SDS011;5534;48.784;9.190;2024-03-06T03:12:06;1.70;;;1.30;;
10963;SDS011;5534;48.784;9.190;2024-03-06T03:14:32;1.93;;;1.10;;
10963;SDS011;5534;48.784;9.190;2024-03-06T03:17:00;3.00;;;1.00;;
10963;SDS011;5534;48.784;9.190;2024-03-06T03:19:26;0.77;;;0.77;;
10963;SDS011;5534;48.784;9.190;2024-03-06T03:21:51;2.43;;;1.63;;
10963;SDS011;5534;48.784;9.190;2024-03-06T03:24:17;0.87;;;0.73;;
10963;SDS011;5534;48.784;9.190;2024-03-06T03:26:45;1.37;;;0.93;;
10963;SDS011;5534;48.784;9.190;2024-03-06T03:29:10;0.77;;;0.77;;
10963;SDS011;5534;48.784;9.190;2024-03-06T03:31:36;0.97;;;0.87;;
10963;SDS011;5534;48.784;9.190;2024-03-06T03:34:03;0.73;;;0.73;;
10963;SDS011;5534;48.784;9.190;2024-03-06T03:36:30;0.60;;;0.60;;
10963;SDS011;5534;48.784;9.190;2024-03-06T03:38:55;1.03;;;0.93;;
10963;SDS011;5534;48.784;9.190;2024-03-06T03:41:21;0.77;;;0.63;;
10963;SDS011;5534;48.784;9.190;2024-03-06T03:43:46;0.77;;;0.77;;
10963;SDS011;5534;48.784;9.190;2024-03-06T03:46:12;1.80;;;1.03;;
10963;SDS011;5534;48.784;9.190;2024-03-06T03:48:39;0.87;;;0.70;;
10963;SDS011;5534;48.784;9.190;2024-03-06T03:51:05;1.33;;;0.63;;
10963;SDS011;5534;48.784;9.190;2024-03-06T03:53:32;1.37;;;0.93;;
10963;SDS011;5534;48.784;9.190;2024-03-06T03:55:58;1.80;;;1.07;;
10963;SDS011;5534;48.784;9.190;2024-03-06T03:58:24;0.50;;;0.50;;
10963;SDS011;5534;48.784;9.190;2024-03-06T04:00:50;0.50;;;0.50;;
10963;SDS011;5534;48.784;9.190;2024-03-06T04:03:20;1.10;;;1.00;;
10963;SDS011;5534;48.784;9.190;2024-03-06T04:05:46;1.20;;;1.10;;
10963;SDS011;5534;48.784;9.190;2024-03-06T04:08:12;1.00;;;0.90;;
10963;SDS011;5534;48.784;9.190;2024-03-06T04:10:38;0.57;;;0.57;;
10963;SDS011;5534;48.784;9.190;2024-03-06T04:13:04;0.80;;;0.80;;
10963;SDS011;5534;48.784;9.190;2024-03-06T04:15:29;1.80;;;0.83;;
10963;SDS011;5534;48.784;9.190;2024-03-06T04:17:56;0.67;;;0.67;;
10963;SDS011;5534;48.784;9.190;2024-03-06T04:20:21;0.77;;;0.77;;
10963;SDS011;5534;48.784;9.190;2024-03-06T04:22:47;0.83;;;0.83;;
10963;SDS011;5534;48.784;9.190;2024-03-06T04:25:15;1.60;;;1.43;;
10963;SDS011;5534;48.784;9.190;2024-03-06T04:27:40;1.13;;;0.97;;
10963;SDS011;5534;48.784;9.190;2024-03-06T04:30:06;0.57;;;0.57;;
10963;SDS011;5534;48.784;9.190;2024-03-06T04:32:32;1.10;;;0.90;;
10963;SDS011;5534;48.784;9.190;2024-03-06T04:34:58;0.60;;;0.60;;
10963;SDS011;5534;48.784;9.190;2024-03-06T04:37:24;1.00;;;0.77;;
10963;SDS011;5534;48.784;9.190;2024-03-06T04:39:51;0.77;;;0.77;;
10963;SDS011;5534;48.784;9.190;2024-03-06T04:42:17;0.70;;;0.70;;
10963;SDS011;5534;48.784;9.190;2024-03-06T04:44:44;0.70;;;0.70;;
10963;SDS011;5534;48.784;9.190;2024-03-06T04:47:10;0.60;;;0.60;;
10963;SDS011;5534;48.784;9.190;2024-03-06T04:49:36;1.27;;;1.17;;
10963;SDS011;5534;48.784;9.190;2024-03-06T04:52:02;1.43;;;1.20;;
10963;SDS011;5534;48.784;9.190;2024-03-06T04:54:28;1.60;;;1.00;;
10963;SDS011;5534;48.784;9.190;2024-03-06T04:56:54;0.50;;;0.50;;
10963;SDS011;5534;48.784;9.190;2024-03-06T04:59:20;1.53;;;1.03;;
10963;SDS011;5534;48.784;9.190;2024-03-06T05:01:46;0.70;;;0.70;;
10963;SDS011;5534;48.784;9.190;2024-03-06T05:04:12;0.87;;;0.73;;
10963;SDS011;5534;48.784;9.190;2024-03-06T05:06:38;0.60;;;0.60;;
10963;SDS011;5534;48.784;9.190;2024-03-06T05:09:03;0.57;;;0.40;;
10963;SDS011;5534;48.784;9.190;2024-03-06T05:11:30;1.07;;;0.70;;
10963;SDS011;5534;48.784;9.190;2024-03-06T05:13:58;0.93;;;0.83;;
10963;SDS011;5534;48.784;9.190;2024-03-06T05:16:24;0.77;;;0.77;;
10963;SDS011;5534;48.784;9.190;2024-03-06T05:18:51;0.60;;;0.57;;
10963;SDS011;5534;48.784;9.190;2024-03-06T05:21:17;0.47;;;0.47;;
10963;SDS011;5534;48.784;9.190;2024-03-06T05:23:43;0.83;;;0.83;;
10963;SDS011;5534;48.784;9.190;2024-03-06T05:26:09;1.20;;;1.10;;
10963;SDS011;5534;48.784;9.190;2024-03-06T05:28:34;0.73;;;0.73;;
10963;SDS011;5534;48.784;9.190;2024-03-06T05:31:00;3.30;;;0.83;;
10963;SDS011;5534;48.784;9.190;2024-03-06T05:33:26;0.73;;;0.73;;
10963;SDS011;5534;48.784;9.190;2024-03-06T05:35:54;0.97;;;0.80;;
10963;SDS011;5534;48.784;9.190;2024-03-06T05:38:19;1.30;;;0.93;;
10963;SDS011;5534;48.784;9.190;2024-03-06T05:40:47;0.80;;;0.80;;
10963;SDS011;5534;48.784;9.190;2024-03-06T05:43:12;0.97;;;0.80;;
10963;SDS011;5534;48.784;9.190;2024-03-06T05:45:38;1.20;;;0.60;;
10963;SDS011;5534;48.784;9.190;2024-03-06T05:48:03;0.93;;;0.87;;
10963;SDS011;5534;48.784;9.190;2024-03-06T05:50:30;1.23;;;0.97;;
10963;SDS011;5534;48.784;9.190;2024-03-06T05:52:55;2.07;;;0.93;;
10963;SDS011;5534;48.784;9.190;2024-03-06T05:55:22;0.73;;;0.73;;
10963;SDS011;5534;48.784;9.190;2024-03-06T05:57:48;0.67;;;0.67;;
10963;SDS011;5534;48.784;9.190;2024-03-06T06:00:14;0.77;;;0.77;;
10963;SDS011;5534;48.784;9.190;2024-03-06T06:02:43;1.20;;;1.07;;
10963;SDS011;5534;48.784;9.190;2024-03-06T06:05:11;1.17;;;1.07;;
10963;SDS011;5534;48.784;9.190;2024-03-06T06:07:36;0.70;;;0.70;;
10963;SDS011;5534;48.784;9.190;2024-03-06T06:10:03;1.13;;;1.00;;
10963;SDS011;5534;48.784;9.190;2024-03-06T06:12:33;1.20;;;1.10;;
10963;SDS011;5534;48.784;9.190;2024-03-06T06:14:59;0.60;;;0.60;;
10963;SDS011;5534;48.784;9.190;2024-03-06T06:17:24;0.77;;;0.70;;
10963;SDS011;5534;48.784;9.190;2024-03-06T06:19:50;0.70;;;0.70;;
10963;SDS011;5534;48.784;9.190;2024-03-06T06:22:15;1.07;;;0.93;;
10963;SDS011;5534;48.784;9.190;2024-03-06T06:24:41;0.63;;;0.63;;
10963;SDS011;5534;48.784;9.190;2024-03-06T06:27:07;1.20;;;0.70;;
10963;SDS011;5534;48.784;9.190;2024-03-06T06:29:33;0.97;;;0.97;;
10963;SDS011;5534;48.784;9.190;2024-03-06T06:31:59;1.20;;;1.10;;
10963;SDS011;5534;48.784;9.190;2024-03-06T06:34:24;1.20;;;0.80;;
10963;SDS011;5534;48.784;9.190;2024-03-06T06:36:52;0.90;;;0.90;;
10963;SDS011;5534;48.784;9.190;2024-03-06T06:39:18;1.90;;;1.20;;
10963;SDS011;5534;48.784;9.190;2024-03-06T06:41:44;1.60;;;1.50;;
10963;SDS011;5534;48.784;9.190;2024-03-06T06:44:11;0.83;;;0.83;;
10963;SDS011;5534;48.784;9.190;2024-03-06T06:46:37;0.90;;;0.77;;
10963;SDS011;5534;48.784;9.190;2024-03-06T06:49:03;0.93;;;0.90;;
10963;SDS011;5534;48.784;9.190;2024-03-06T06:51:30;1.30;;;1.20;;
10963;SDS011;5534;48.784;9.190;2024-03-06T06:53:56;1.50;;;1.27;;
10963;SDS011;5534;48.784;9.190;2024-03-06T06:56:21;1.40;;;1.07;;
10963;SDS011;5534;48.784;9.190;2024-03-06T06:58:49;1.13;;;1.03;;
10963;SDS011;5534;48.784;9.190;2024-03-06T07:01:14;2.00;;;1.77;;
10963;SDS011;5534;48.784;9.190;2024-03-06T07:03:42;1.17;;;0.97;;
10963;SDS011;5534;48.784;9.190;2024-03-06T07:06:08;1.07;;;0.90;;
10963;SDS011;5534;48.784;9.190;2024-03-06T07:08:33;1.43;;;1.33;;
10963;SDS011;5534;48.784;9.190;2024-03-06T07:10:59;0.83;;;0.80;;
10963;SDS011;5534;48.784;9.190;2024-03-06T07:13:24;0.67;;;0.67;;
10963;SDS011;5534;48.784;9.190;2024-03-06T07:15:51;1.17;;;0.90;;
10963;SDS011;5534;48.784;9.190;2024-03-06T07:18:16;0.83;;;0.83;;
10963;SDS011;5534;48.784;9.190;2024-03-06T07:20:42;1.73;;;1.00;;
10963;SDS011;5534;48.784;9.190;2024-03-06T07:23:07;2.00;;;1.07;;
10963;SDS011;5534;48.784;9.190;2024-03-06T07:25:33;1.13;;;1.03;;
10963;SDS011;5534;48.784;9.190;2024-03-06T07:27:59;1.93;;;1.73;;
10963;SDS011;5534;48.784;9.190;2024-03-06T07:30:24;1.03;;;0.93;;
10963;SDS011;5534;48.784;9.190;2024-03-06T07:32:50;1.47;;;1.37;;
10963;SDS011;5534;48.784;9.190;2024-03-06T07:35:16;0.87;;;0.87;;
10963;SDS011;5534;48.784;9.190;2024-03-06T07:37:42;0.77;;;0.77;;
10963;SDS011;5534;48.784;9.190;2024-03-06T07:40:09;0.80;;;0.80;;
10963;SDS011;5534;48.784;9.190;2024-03-06T07:42:35;1.17;;;0.97;;
10963;SDS011;5534;48.784;9.190;2024-03-06T07:45:04;1.27;;;1.10;;
10963;SDS011;5534;48.784;9.190;2024-03-06T07:47:33;1.17;;;0.83;;
10963;SDS011;5534;48.784;9.190;2024-03-06T07:50:02;1.03;;;0.97;;
10963;SDS011;5534;48.784;9.190;2024-03-06T07:52:31;1.40;;;0.80;;
10963;SDS011;5534;48.784;9.190;2024-03-06T07:54:57;2.60;;;1.30;;
10963;SDS011;5534;48.784;9.190;2024-03-06T07:57:23;2.67;;;1.27;;
10963;SDS011;5534;48.784;9.190;2024-03-06T07:59:48;1.07;;;0.97;;
10963;SDS011;5534;48.784;9.190;2024-03-06T08:02:16;2.10;;;1.50;;
10963;SDS011;5534;48.784;9.190;2024-03-06T08:04:42;1.20;;;0.90;;
10963;SDS011;5534;48.784;9.190;2024-03-06T08:07:08;1.00;;;0.90;;
10963;SDS011;5534;48.784;9.190;2024-03-06T08:09:33;1.70;;;1.27;;
10963;SDS011;5534;48.784;9.190;2024-03-06T08:11:59;2.20;;;1.30;;
10963;SDS011;5534;48.784;9.190;2024-03-06T08:14:25;0.90;;;0.90;;
10963;SDS011;5534;48.784;9.190;2024-03-06T08:16:50;1.47;;;1.37;;
10963;SDS011;5534;48.784;9.190;2024-03-06T08:19:16;1.10;;;0.70;;
10963;SDS011;5534;48.784;9.190;2024-03-06T08:21:42;0.90;;;0.90;;
10963;SDS011;5534;48.784;9.190;2024-03-06T08:24:07;0.90;;;0.83;;
10963;SDS011;5534;48.784;9.190;2024-03-06T08:26:36;2.93;;;0.80;;
10963;SDS011;5534;48.784;9.190;2024-03-06T08:29:02;3.37;;;1.90;;
10963;SDS011;5534;48.784;9.190;2024-03-06T08:31:28;1.20;;;1.03;;
10963;SDS011;5534;48.784;9.190;2024-03-06T08:33:54;0.97;;;0.87;;
10963;SDS011;5534;48.784;9.190;2024-03-06T08:36:19;1.10;;;1.03;;
10963;SDS011;5534;48.784;9.190;2024-03-06T08:38:46;0.63;;;0.63;;
10963;SDS011;5534;48.784;9.190;2024-03-06T08:41:11;0.97;;;0.87;;
10963;SDS011;5534;48.784;9.190;2024-03-06T08:43:41;1.17;;;1.07;;
10963;SDS011;5534;48.784;9.190;2024-03-06T08:46:07;0.97;;;0.83;;
10963;SDS011;5534;48.784;9.190;2024-03-06T08:48:37;0.93;;;0.87;;
10963;SDS011;5534;48.784;9.190;2024-03-06T08:51:04;1.40;;;1.27;;
10963;SDS011;5534;48.784;9.190;2024-03-06T08:53:35;1.33;;;1.03;;
10963;SDS011;5534;48.784;9.190;2024-03-06T08:56:02;1.00;;;0.80;;
10963;SDS011;5534;48.784;9.190;2024-03-06T08:58:27;1.53;;;0.90;;
10963;SDS011;5534;48.784;9.190;2024-03-06T09:00:53;0.70;;;0.70;;
10963;SDS011;5534;48.784;9.190;2024-03-06T09:03:18;0.63;;;0.63;;
10963;SDS011;5534;48.784;9.190;2024-03-06T09:05:44;0.97;;;0.87;;
10963;SDS011;5534;48.784;9.190;2024-03-06T09:08:10;1.50;;;1.37;;
10963;SDS011;5534;48.784;9.190;2024-03-06T09:10:37;0.90;;;0.80;;
10963;SDS011;5534;48.784;9.190;2024-03-06T09:13:03;0.77;;;0.77;;
10963;SDS011;5534;48.784;9.190;2024-03-06T09:15:29;1.00;;;0.90;;
10963;SDS011;5534;48.784;9.190;2024-03-06T09:17:54;1.90;;;1.13;;
10963;SDS011;5534;48.784;9.190;2024-03-06T09:20:20;1.20;;;1.10;;
10963;SDS011;5534;48.784;9.190;2024-03-06T09:22:48;1.83;;;0.80;;
10963;SDS011;5534;48.784;9.190;2024-03-06T09:25:14;1.20;;;1.10;;
10963;SDS011;5534;48.784;9.190;2024-03-06T09:27:43;3.37;;;1.37;;
10963;SDS011;5534;48.784;9.190;2024-03-06T09:30:08;1.47;;;1.17;;
10963;SDS011;5534;48.784;9.190;2024-03-06T09:32:34;1.30;;;1.20;;
10963;SDS011;5534;48.784;9.190;2024-03-06T09:35:00;1.23;;;1.10;;
10963;SDS011;5534;48.784;9.190;2024-03-06T09:37:26;1.30;;;1.20;;
10963;SDS011;5534;48.784;9.190;2024-03-06T09:39:52;3.63;;;1.60;;
10963;SDS011;5534;48.784;9.190;2024-03-06T09:42:18;1.00;;;0.90;;
10963;SDS011;5534;48.784;9.190;2024-03-06T09:44:44;2.33;;;1.70;;
10963;SDS011;5534;48.784;9.190;2024-03-06T09:47:12;4.40;;;1.80;;
10963;SDS011;5534;48.784;9.190;2024-03-06T09:49:41;0.97;;;0.87;;
10963;SDS011;5534;48.784;9.190;2024-03-06T09:52:08;0.83;;;0.77;;
10963;SDS011;5534;48.784;9.190;2024-03-06T09:54:35;1.13;;;1.00;;
10963;SDS011;5534;48.784;9.190;2024-03-06T09:57:03;1.00;;;0.97;;
10963;SDS011;5534;48.784;9.190;2024-03-06T09:59:29;1.30;;;1.20;;
10963;SDS011;5534;48.784;9.190;2024-03-06T10:01:55;2.10;;;1.90;;
10963;SDS011;5534;48.784;9.190;2024-03-06T10:04:22;2.37;;;1.93;;
10963;SDS011;5534;48.784;9.190;2024-03-06T10:06:59;1.60;;;1.50;;
10963;SDS011;5534;48.784;9.190;2024-03-06T10:09:25;1.80;;;1.70;;
10963;SDS011;5534;48.784;9.190;2024-03-06T10:11:52;1.50;;;1.40;;
10963;SDS011;5534;48.784;9.190;2024-03-06T10:14:19;1.60;;;1.50;;
10963;SDS011;5534;48.784;9.190;2024-03-06T10:16:51;2.47;;;1.90;;
10963;SDS011;5534;48.784;9.190;2024-03-06T10:19:18;4.67;;;2.27;;
10963;SDS011;5534;48.784;9.190;2024-03-06T10:21:47;2.27;;;2.00;;
10963;SDS011;5534;48.784;9.190;2024-03-06T10:24:20;3.40;;;2.50;;
10963;SDS011;5534;48.784;9.190;2024-03-06T10:26:48;4.87;;;2.90;;
10963;SDS011;5534;48.784;9.190;2024-03-06T10:29:17;2.27;;;1.90;;
10963;SDS011;5534;48.784;9.190;2024-03-06T10:31:54;1.63;;;1.53;;
10963;SDS011;5534;48.784;9.190;2024-03-06T10:34:20;1.60;;;1.50;;
10963;SDS011;5534;48.784;9.190;2024-03-06T10:36:53;1.47;;;1.33;;
10963;SDS011;5534;48.784;9.190;2024-03-06T10:39:20;2.23;;;2.03;;
10963;SDS011;5534;48.784;9.190;2024-03-06T10:41:46;2.20;;;2.00;;
10963;SDS011;5534;48.784;9.190;2024-03-06T10:44:25;1.97;;;1.83;;
10963;SDS011;5534;48.784;9.190;2024-03-06T10:46:58;2.70;;;2.27;;
10963;SDS011;5534;48.784;9.190;2024-03-06T10:49:29;1.80;;;1.70;;
10963;SDS011;5534;48.784;9.190;2024-03-06T10:52:02;3.63;;;2.73;;
10963;SDS011;5534;48.784;9.190;2024-03-06T10:54:32;2.77;;;2.57;;
10963;SDS011;5534;48.784;9.190;2024-03-06T10:57:07;2.20;;;2.00;;
10963;SDS011;5534;48.784;9.190;2024-03-06T10:59:35;2.87;;;2.57;;
10963;SDS011;5534;48.784;9.190;2024-03-06T11:02:01;3.90;;;2.20;;
10963;SDS011;5534;48.784;9.190;2024-03-06T11:04:28;3.30;;;2.60;;
10963;SDS011;5534;48.784;9.190;2024-03-06T11:07:00;2.77;;;2.53;;
10963;SDS011;5534;48.784;9.190;2024-03-06T11:09:27;2.60;;;2.07;;
10963;SDS011;5534;48.784;9.190;2024-03-06T11:12:05;3.10;;;2.40;;
10963;SDS011;5534;48.784;9.190;2024-03-06T11:14:32;2.70;;;2.13;;
10963;SDS011;5534;48.784;9.190;2024-03-06T11:17:05;3.57;;;2.70;;
10963;SDS011;5534;48.784;9.190;2024-03-06T11:20:07;4.37;;;3.27;;
10963;SDS011;5534;48.784;9.190;2024-03-06T11:28:10;3.93;;;2.97;;
10963;SDS011;5534;48.784;9.190;2024-03-06T11:33:36;3.37;;;3.07;;
10963;SDS011;5534;48.784;9.190;2024-03-06T11:36:13;3.60;;;3.27;;
10963;SDS011;5534;48.784;9.190;2024-03-06T11:41:28;3.17;;;2.70;;
10963;SDS011;5534;48.784;9.190;2024-03-06T11:43:55;4.10;;;3.20;;
10963;SDS011;5534;48.784;9.190;2024-03-06T11:46:22;4.13;;;3.23;;
10963;SDS011;5534;48.784;9.190;2024-03-06T11:49:04;5.20;;;3.47;;
10963;SDS011;5534;48.784;9.190;2024-03-06T11:52:03;4.80;;;3.80;;
10963;SDS011;5534;48.784;9.190;2024-03-06T11:54:30;3.27;;;2.97;;
10963;SDS011;5534;48.784;9.190;2024-03-06T11:56:58;6.87;;;4.20;;
10963;SDS011;5534;48.784;9.190;2024-03-06T11:59:25;4.93;;;3.20;;
10963;SDS011;5534;48.784;9.190;2024-03-06T12:01:52;3.93;;;2.97;;
10963;SDS011;5534;48.784;9.190;2024-03-06T12:04:20;3.17;;;2.87;;
10963;SDS011;5534;48.784;9.190;2024-03-06T12:06:46;5.83;;;3.67;;
10963;SDS011;5534;48.784;9.190;2024-03-06T12:09:12;5.40;;;3.77;;
10963;SDS011;5534;48.784;9.190;2024-03-06T12:11:40;4.50;;;3.57;;
10963;SDS011;5534;48.784;9.190;2024-03-06T12:14:08;6.13;;;3.70;;
10963;SDS011;5534;48.784;9.190;2024-03-06T12:16:56;5.73;;;3.60;;
10963;SDS011;5534;48.784;9.190;2024-03-06T12:19:25;4.07;;;3.53;;
10963;SDS011;5534;48.784;9.190;2024-03-06T12:21:54;4.07;;;3.63;;
10963;SDS011;5534;48.784;9.190;2024-03-06T12:24:20;3.27;;;2.87;;
10963;SDS011;5534;48.784;9.190;2024-03-06T12:26:46;4.83;;;3.80;;
10963;SDS011;5534;48.784;9.190;2024-03-06T12:29:17;4.23;;;3.83;;
10963;SDS011;5534;48.784;9.190;2024-03-06T12:31:46;5.73;;;4.30;;
10963;SDS011;5534;48.784;9.190;2024-03-06T12:34:14;4.50;;;3.70;;
10963;SDS011;5534;48.784;9.190;2024-03-06T12:36:43;4.67;;;3.67;;
10963;SDS011;5534;48.784;9.190;2024-03-06T12:39:08;4.17;;;2.90;;
10963;SDS011;5534;48.784;9.190;2024-03-06T12:41:46;3.97;;;2.77;;
10963;SDS011;5534;48.784;9.190;2024-03-06T12:44:12;5.13;;;3.30;;
10963;SDS011;5534;48.784;9.190;2024-03-06T12:46:39;3.77;;;2.90;;
10963;SDS011;5534;48.784;9.190;2024-03-06T12:49:05;3.80;;;3.37;;
10963;SDS011;5534;48.784;9.190;2024-03-06T12:51:30;4.73;;;3.97;;
10963;SDS011;5534;48.784;9.190;2024-03-06T12:53:57;4.37;;;2.67;;
10963;SDS011;5534;48.784;9.190;2024-03-06T12:56:23;4.93;;;3.17;;
10963;SDS011;5534;48.784;9.190;2024-03-06T12:58:50;4.83;;;3.00;;
10963;SDS011;5534;48.784;9.190;2024-03-06T13:01:19;5.33;;;3.80;;
10963;SDS011;5534;48.784;9.190;2024-03-06T13:03:45;4.30;;;3.90;;
10963;SDS011;5534;48.784;9.190;2024-03-06T13:06:11;5.57;;;3.13;;
10963;SDS011;5534;48.784;9.190;2024-03-06T13:08:36;3.97;;;3.17;;
10963;SDS011;5534;48.784;9.190;2024-03-06T13:11:02;3.03;;;2.73;;
10963;SDS011;5534;48.784;9.190;2024-03-06T13:13:28;4.90;;;3.87;;
10963;SDS011;5534;48.784;9.190;2024-03-06T13:15:57;4.20;;;3.50;;
10963;SDS011;5534;48.784;9.190;2024-03-06T13:18:23;4.83;;;3.83;;
10963;SDS011;5534;48.784;9.190;2024-03-06T13:20:48;5.13;;;4.47;;
10963;SDS011;5534;48.784;9.190;2024-03-06T13:23:14;5.80;;;3.83;;
10963;SDS011;5534;48.784;9.190;2024-03-06T13:25:40;6.87;;;4.00;;
10963;SDS011;5534;48.784;9.190;2024-03-06T13:28:06;3.60;;;2.87;;
10963;SDS011;5534;48.784;9.190;2024-03-06T13:30:32;5.73;;;4.10;;
10963;SDS011;5534;48.784;9.190;2024-03-06T13:32:58;5.60;;;4.00;;
10963;SDS011;5534;48.784;9.190;2024-03-06T13:35:24;3.83;;;3.33;;
10963;SDS011;5534;48.784;9.190;2024-03-06T13:37:51;5.60;;;4.10;;
10963;SDS011;5534;48.784;9.190;2024-03-06T13:40:17;3.27;;;2.67;;
10963;SDS011;5534;48.784;9.190;2024-03-06T13:42:43;4.03;;;3.23;;
10963;SDS011;5534;48.784;9.190;2024-03-06T13:45:09;3.47;;;2.90;;
10963;SDS011;5534;48.784;9.190;2024-03-06T13:47:39;5.47;;;2.90;;
10963;SDS011;5534;48.784;9.190;2024-03-06T13:50:09;4.87;;;3.47;;
10963;SDS011;5534;48.784;9.190;2024-03-06T13:52:39;3.70;;;3.23;;
10963;SDS011;5534;48.784;9.190;2024-03-06T13:55:05;4.50;;;3.57;;
10963;SDS011;5534;48.784;9.190;2024-03-06T13:57:32;3.17;;;2.87;;
10963;SDS011;5534;48.784;9.190;2024-03-06T14:00:04;4.67;;;2.90;;
10963;SDS011;5534;48.784;9.190;2024-03-06T14:02:37;3.80;;;3.07;;
10963;SDS011;5534;48.784;9.190;2024-03-06T14:05:04;3.07;;;2.77;;
10963;SDS011;5534;48.784;9.190;2024-03-06T14:07:30;2.97;;;2.67;;
10963;SDS011;5534;48.784;9.190;2024-03-06T14:09:56;3.33;;;2.70;;
10963;SDS011;5534;48.784;9.190;2024-03-06T14:12:22;3.43;;;2.30;;
10963;SDS011;5534;48.784;9.190;2024-03-06T14:14:48;4.60;;;3.27;;
10963;SDS011;5534;48.784;9.190;2024-03-06T14:17:17;4.23;;;3.83;;
10963;SDS011;5534;48.784;9.190;2024-03-06T14:19:42;4.20;;;3.90;;
10963;SDS011;5534;48.784;9.190;2024-03-06T14:22:10;4.70;;;3.57;;
10963;SDS011;5534;48.784;9.190;2024-03-06T14:24:36;3.90;;;3.13;;
10963;SDS011;5534;48.784;9.190;2024-03-06T14:27:02;4.17;;;3.07;;
10963;SDS011;5534;48.784;9.190;2024-03-06T14:29:28;3.37;;;3.03;;
10963;SDS011;5534;48.784;9.190;2024-03-06T14:31:54;3.47;;;2.70;;
10963;SDS011;5534;48.784;9.190;2024-03-06T14:34:20;4.63;;;3.57;;
10963;SDS011;5534;48.784;9.190;2024-03-06T14:36:48;3.10;;;2.80;;
10963;SDS011;5534;48.784;9.190;2024-03-06T14:39:17;4.10;;;3.33;;
10963;SDS011;5534;48.784;9.190;2024-03-06T14:41:43;4.80;;;3.87;;
10963;SDS011;5534;48.784;9.190;2024-03-06T14:44:10;3.57;;;3.03;;
10963;SDS011;5534;48.784;9.190;2024-03-06T14:46:35;3.70;;;2.87;;
10963;SDS011;5534;48.784;9.190;2024-03-06T14:49:01;3.70;;;3.27;;
10963;SDS011;5534;48.784;9.190;2024-03-06T14:51:27;4.90;;;3.40;;
10963;SDS011;5534;48.784;9.190;2024-03-06T14:53:53;3.07;;;2.70;;
10963;SDS011;5534;48.784;9.190;2024-03-06T14:56:19;4.53;;;3.43;;
10963;SDS011;5534;48.784;9.190;2024-03-06T14:58:46;3.50;;;3.20;;
10963;SDS011;5534;48.784;9.190;2024-03-06T15:01:12;5.60;;;3.50;;
10963;SDS011;5534;48.784;9.190;2024-03-06T15:03:38;3.20;;;2.80;;
10963;SDS011;5534;48.784;9.190;2024-03-06T15:06:04;3.37;;;3.07;;
10963;SDS011;5534;48.784;9.190;2024-03-06T15:08:32;4.37;;;3.10;;
10963;SDS011;5534;48.784;9.190;2024-03-06T15:10:59;3.87;;;2.57;;